createdAt,value
2022-08-26T00:00:37.221Z,25.53
2022-08-26T00:03:41.429Z,25.62
2022-08-26T00:06:46.291Z,25.63
2022-08-26T00:09:50.124Z,25.62
2022-08-26T00:12:57.080Z,25.69
2022-08-26T00:16:00.160Z,25.67
2022-08-26T00:19:02.798Z,25.66
2022-08-26T00:22:05.718Z,25.56
2022-08-26T00:25:09.800Z,25.55
2022-08-26T00:28:12.965Z,25.57
2022-08-26T00:31:16.605Z,25.53
2022-08-26T00:34:19.689Z,25.55
2022-08-26T00:37:22.551Z,25.60
2022-08-26T00:40:32.634Z,25.43
2022-08-26T00:43:47.279Z,25.47
2022-08-26T00:46:52.770Z,25.49
2022-08-26T00:49:56.862Z,25.47
2022-08-26T00:53:01.275Z,25.40
2022-08-26T00:56:07.587Z,25.35
2022-08-26T00:59:12.331Z,25.29
2022-08-26T01:02:21.129Z,25.36
2022-08-26T01:05:24.840Z,25.40
2022-08-26T01:08:27.705Z,25.30
2022-08-26T01:11:30.736Z,25.22
2022-08-26T01:14:34.847Z,25.29
2022-08-26T01:17:40.079Z,25.29
2022-08-26T01:20:47.739Z,25.21
2022-08-26T01:23:57.717Z,25.04
2022-08-26T01:27:02.812Z,24.91
2022-08-26T01:30:11.059Z,25.02
2022-08-26T01:33:17.640Z,25.05
2022-08-26T01:36:20.438Z,25.14
2022-08-26T01:39:23.440Z,25.18
2022-08-26T01:42:29.674Z,25.25
2022-08-26T01:45:33.303Z,25.21
2022-08-26T01:48:38.372Z,25.07
2022-08-26T01:51:41.338Z,25.00
2022-08-26T01:54:46.379Z,24.98
2022-08-26T01:57:56.332Z,24.80
2022-08-26T02:00:59.668Z,24.71
2022-08-26T02:04:06.288Z,24.70
2022-08-26T02:07:09.560Z,24.63
2022-08-26T02:10:12.323Z,24.66
2022-08-26T02:13:18.027Z,24.70
2022-08-26T02:16:22.357Z,24.68
2022-08-26T02:19:29.072Z,24.62
2022-08-26T02:22:32.619Z,24.49
2022-08-26T02:25:48.507Z,24.43
2022-08-26T02:28:53.479Z,24.42
2022-08-26T02:31:56.162Z,24.47
2022-08-26T02:34:58.891Z,24.42
2022-08-26T02:38:02.715Z,24.52
2022-08-26T02:41:13.177Z,24.73
2022-08-26T02:44:17.037Z,24.87
2022-08-26T02:47:19.710Z,24.91
2022-08-26T02:50:28.217Z,24.91
2022-08-26T02:53:31.874Z,24.94
2022-08-26T02:56:38.061Z,24.97
2022-08-26T02:59:40.707Z,24.87
2022-08-26T03:02:43.517Z,24.82
2022-08-26T03:05:47.040Z,24.82
2022-08-26T03:08:50.279Z,24.80
2022-08-26T03:11:54.708Z,24.74
2022-08-26T03:14:57.357Z,24.68
2022-08-26T03:18:01.905Z,24.66
2022-08-26T03:21:08.752Z,24.57
2022-08-26T03:24:12.148Z,24.57
2022-08-26T03:27:14.860Z,24.49
2022-08-26T03:30:36.920Z,24.44
2022-08-26T03:33:40.213Z,24.46
2022-08-26T03:36:43.069Z,24.50
2022-08-26T03:39:45.733Z,24.32
2022-08-26T03:42:48.521Z,24.20
2022-08-26T03:45:51.326Z,24.29
2022-08-26T03:48:55.195Z,24.23
2022-08-26T03:51:57.796Z,24.35
2022-08-26T03:55:00.729Z,24.36
2022-08-26T03:58:03.429Z,24.26
2022-08-26T04:01:06.251Z,24.32
2022-08-26T04:04:15.417Z,24.52
2022-08-26T04:07:18.759Z,24.46
2022-08-26T04:10:28.769Z,24.60
2022-08-26T04:13:32.420Z,24.62
2022-08-26T04:16:35.260Z,24.67
2022-08-26T04:19:38.062Z,24.66
2022-08-26T04:22:41.461Z,24.74
2022-08-26T04:25:44.085Z,24.91
2022-08-26T04:28:47.090Z,24.91
2022-08-26T04:31:50.351Z,25.02
2022-08-26T04:34:58.024Z,25.05
2022-08-26T04:38:04.044Z,24.94
2022-08-26T04:41:14.913Z,24.80
2022-08-26T04:44:18.318Z,24.94
2022-08-26T04:47:20.941Z,24.90
2022-08-26T04:50:25.190Z,24.94
2022-08-26T04:53:28.112Z,25.01
2022-08-26T04:56:32.218Z,24.90
2022-08-26T04:59:38.978Z,24.97
2022-08-26T05:02:42.038Z,25.09
2022-08-26T05:05:46.705Z,25.21
2022-08-26T05:08:49.713Z,25.21
2022-08-26T05:11:52.521Z,25.32
2022-08-26T05:14:55.481Z,25.42
2022-08-26T05:17:58.903Z,25.55
2022-08-26T05:21:03.575Z,25.47
2022-08-26T05:24:07.421Z,25.45
2022-08-26T05:27:11.777Z,25.55
2022-08-26T05:30:14.945Z,25.77
2022-08-26T05:33:18.232Z,26.09
2022-08-26T05:36:22.496Z,26.31
2022-08-26T05:39:25.078Z,26.38
2022-08-26T05:42:28.422Z,26.39
2022-08-26T05:45:33.050Z,26.45
2022-08-26T05:48:35.959Z,26.66
2022-08-26T05:51:39.007Z,26.90
2022-08-26T05:54:42.069Z,27.01
2022-08-26T05:57:45.253Z,27.03
2022-08-26T06:00:55.782Z,27.08
2022-08-26T06:04:01.470Z,27.05
2022-08-26T06:07:05.489Z,27.11
2022-08-26T06:10:31.702Z,27.10
2022-08-26T06:13:35.458Z,26.86
2022-08-26T06:16:40.992Z,26.86
2022-08-26T06:19:43.859Z,26.87
2022-08-26T06:23:05.596Z,27.05
2022-08-26T06:26:10.887Z,27.18
2022-08-26T06:29:14.021Z,27.34
2022-08-26T06:32:27.269Z,27.38
2022-08-26T06:35:29.920Z,27.58
2022-08-26T06:38:33.846Z,27.83
2022-08-26T06:41:43.287Z,28.03
2022-08-26T06:44:47.047Z,28.13
2022-08-26T06:47:49.687Z,27.96
2022-08-26T06:51:02.590Z,27.97
2022-08-26T06:54:05.754Z,28.01
2022-08-26T06:57:09.221Z,27.96
2022-08-26T07:00:13.854Z,27.91
2022-08-26T07:03:16.747Z,27.97
2022-08-26T07:06:21.406Z,28.16
2022-08-26T07:09:27.011Z,28.27
2022-08-26T07:12:30.251Z,28.52
2022-08-26T07:15:36.350Z,28.66
2022-08-26T07:18:39.991Z,28.30
2022-08-26T07:21:44.109Z,27.55
2022-08-26T07:24:46.822Z,28.00
2022-08-26T07:27:54.468Z,28.38
2022-08-26T07:30:57.426Z,28.65
2022-08-26T07:34:00.909Z,28.72
2022-08-26T07:37:08.784Z,28.93
2022-08-26T07:40:13.894Z,29.21
2022-08-26T07:43:19.046Z,29.36
2022-08-26T07:46:27.068Z,28.66
2022-08-26T07:49:32.850Z,28.10
2022-08-26T07:52:37.661Z,28.16
2022-08-26T07:55:40.898Z,28.94
2022-08-26T07:58:45.726Z,28.97
2022-08-26T08:01:50.746Z,28.38
2022-08-26T08:04:54.327Z,28.08
2022-08-26T08:08:00.850Z,28.81
2022-08-26T08:11:20.620Z,28.93
2022-08-26T08:14:23.254Z,28.51
2022-08-26T08:17:25.816Z,28.30
2022-08-26T08:20:29.155Z,29.14
2022-08-26T08:23:32.410Z,30.06
2022-08-26T08:26:35.155Z,30.27
2022-08-26T08:29:37.765Z,29.59
2022-08-26T08:32:43.178Z,29.14
2022-08-26T08:35:45.870Z,28.92
2022-08-26T08:38:48.527Z,28.82
2022-08-26T08:41:58.942Z,28.68
2022-08-26T08:45:05.075Z,28.63
2022-08-26T08:48:13.566Z,28.59
2022-08-26T08:51:20.122Z,28.54
2022-08-26T08:54:25.747Z,28.52
2022-08-26T08:57:33.550Z,28.54
2022-08-26T09:00:41.791Z,28.56
2022-08-26T09:03:50.710Z,28.54
2022-08-26T09:06:55.551Z,28.59
2022-08-26T09:10:01.015Z,28.61
2022-08-26T09:13:05.651Z,28.69
2022-08-26T09:16:10.327Z,28.73
2022-08-26T09:19:18.965Z,28.81
2022-08-26T09:22:29.728Z,28.93
2022-08-26T09:25:32.413Z,28.92
2022-08-26T09:28:40.217Z,28.99
2022-08-26T09:31:43.523Z,29.10
2022-08-26T09:34:53.409Z,29.27
2022-08-26T09:37:56.000Z,29.42
2022-08-26T09:40:59.784Z,29.57
2022-08-26T09:44:14.697Z,29.73
2022-08-26T09:47:21.742Z,29.93
2022-08-26T09:50:28.786Z,30.20
2022-08-26T09:53:33.738Z,30.44
2022-08-26T09:56:38.123Z,30.55
2022-08-26T09:59:42.301Z,30.69
2022-08-26T10:02:47.758Z,30.90
2022-08-26T10:05:57.786Z,31.10
2022-08-26T10:09:08.868Z,31.34
2022-08-26T10:12:16.358Z,31.51
2022-08-26T10:15:20.721Z,31.74
2022-08-26T10:18:28.786Z,31.98
2022-08-26T10:21:36.729Z,32.16
2022-08-26T10:24:45.022Z,32.35
2022-08-26T10:27:54.401Z,32.56
2022-08-26T10:31:00.486Z,32.59
2022-08-26T10:34:03.299Z,32.60
2022-08-26T10:37:13.662Z,32.63
2022-08-26T10:40:22.651Z,32.53
2022-08-26T10:43:26.883Z,32.60
2022-08-26T10:46:36.055Z,32.77
2022-08-26T10:49:40.592Z,32.95
2022-08-26T10:52:50.289Z,33.12
2022-08-26T10:55:58.064Z,33.26
2022-08-26T10:59:06.479Z,33.36
2022-08-26T11:02:22.819Z,33.42
2022-08-26T11:05:27.441Z,33.57
2022-08-26T11:08:30.312Z,33.52
2022-08-26T11:11:45.126Z,33.45
2022-08-26T11:14:56.168Z,33.60
2022-08-26T11:18:03.088Z,33.79
2022-08-26T11:21:36.442Z,33.99
2022-08-26T11:24:44.560Z,34.20
2022-08-26T11:27:55.606Z,34.27
2022-08-26T11:30:58.503Z,34.31
2022-08-26T11:34:02.832Z,34.39
2022-08-26T11:37:12.300Z,34.56
2022-08-26T11:40:17.308Z,34.65
2022-08-26T11:43:23.318Z,34.76
2022-08-26T11:46:27.142Z,34.82
2022-08-26T11:49:32.422Z,34.82
2022-08-26T11:52:36.434Z,34.92
2022-08-26T11:55:42.810Z,34.97
2022-08-26T11:58:47.123Z,35.04
2022-08-26T12:01:50.937Z,35.14
2022-08-26T12:04:54.336Z,35.23
2022-08-26T12:07:59.234Z,35.31
2022-08-26T12:11:03.091Z,35.42
2022-08-26T12:14:15.841Z,35.48
2022-08-26T12:17:19.499Z,35.54
2022-08-26T12:20:45.363Z,35.61
2022-08-26T12:23:50.142Z,35.71
2022-08-26T12:27:14.354Z,35.72
2022-08-26T12:30:19.424Z,35.79
2022-08-26T12:33:23.314Z,35.76
2022-08-26T12:36:28.708Z,35.71
2022-08-26T12:39:35.001Z,35.67
2022-08-26T12:42:41.491Z,35.65
2022-08-26T12:45:54.912Z,35.65
2022-08-26T12:49:00.762Z,35.78
2022-08-26T12:52:04.059Z,35.81
2022-08-26T12:55:17.673Z,35.68
2022-08-26T12:58:25.385Z,35.61
2022-08-26T13:01:35.968Z,35.57
2022-08-26T13:04:40.587Z,35.55
2022-08-26T13:07:43.289Z,35.54
2022-08-26T13:10:47.610Z,35.57
2022-08-26T13:13:56.152Z,35.59
2022-08-26T13:16:59.015Z,35.61
2022-08-26T13:20:04.201Z,35.54
2022-08-26T13:23:07.778Z,35.52
2022-08-26T13:26:10.583Z,35.52
2022-08-26T13:29:13.373Z,35.52
2022-08-26T13:32:17.454Z,35.61
2022-08-26T13:35:20.234Z,35.67
2022-08-26T13:38:33.632Z,35.72
2022-08-26T13:41:36.855Z,35.81
2022-08-26T13:44:40.134Z,35.81
2022-08-26T13:47:43.069Z,35.88
2022-08-26T13:50:46.104Z,35.91
2022-08-26T13:53:49.502Z,36.02
2022-08-26T13:56:52.271Z,36.12
2022-08-26T13:59:56.647Z,36.20
2022-08-26T14:03:00.395Z,36.26
2022-08-26T14:06:03.231Z,36.29
2022-08-26T14:09:06.029Z,36.23
2022-08-26T14:12:09.061Z,36.18
2022-08-26T14:15:12.532Z,36.18
2022-08-26T14:18:17.580Z,36.22
2022-08-26T14:21:21.196Z,36.19
2022-08-26T14:24:24.018Z,36.10
2022-08-26T14:27:27.845Z,36.18
2022-08-26T14:30:31.202Z,36.19
2022-08-26T14:33:34.633Z,36.15
2022-08-26T14:36:40.121Z,36.16
2022-08-26T14:39:42.963Z,36.26
2022-08-26T14:42:52.683Z,36.41
2022-08-26T14:45:58.556Z,36.58
2022-08-26T14:49:03.581Z,36.68
2022-08-26T14:52:10.354Z,36.79
2022-08-26T14:55:13.030Z,36.89
2022-08-26T14:58:16.022Z,37.02
2022-08-26T15:01:21.495Z,37.22
2022-08-26T15:04:24.639Z,37.44
2022-08-26T15:07:27.433Z,37.63
2022-08-26T15:10:36.024Z,37.73
2022-08-26T15:13:39.882Z,37.81
2022-08-26T15:16:42.854Z,38.01
2022-08-26T15:19:46.855Z,38.31
2022-08-26T15:22:49.543Z,38.51
2022-08-26T15:25:53.889Z,38.63
2022-08-26T15:28:56.763Z,38.74
2022-08-26T15:32:01.024Z,38.80
2022-08-26T15:35:08.716Z,38.84
2022-08-26T15:38:12.119Z,38.96
2022-08-26T15:41:14.833Z,39.13
2022-08-26T15:44:17.988Z,39.35
2022-08-26T15:47:21.675Z,39.56
2022-08-26T15:50:25.073Z,39.68
2022-08-26T15:53:29.945Z,39.79
2022-08-26T15:56:33.791Z,39.99
2022-08-26T15:59:37.382Z,40.26
2022-08-26T16:02:40.586Z,40.47
2022-08-26T16:05:43.428Z,40.51
2022-08-26T16:08:46.373Z,40.45
2022-08-26T16:11:49.295Z,40.37
2022-08-26T16:14:53.444Z,40.18
2022-08-26T16:17:58.277Z,39.98
2022-08-26T16:21:12.628Z,39.86
2022-08-26T16:24:17.406Z,39.76
2022-08-26T16:27:20.202Z,39.69
2022-08-26T16:30:26.121Z,39.68
2022-08-26T16:33:29.814Z,39.62
2022-08-26T16:36:33.505Z,39.54
2022-08-26T16:39:44.916Z,39.34
2022-08-26T16:42:48.128Z,39.06
2022-08-26T16:45:50.950Z,38.79
2022-08-26T16:48:53.861Z,38.52
2022-08-26T16:51:56.683Z,38.33
2022-08-26T16:54:59.521Z,38.16
2022-08-26T16:58:02.570Z,38.03
2022-08-26T17:01:05.516Z,37.85
2022-08-26T17:04:11.126Z,37.67
2022-08-26T17:07:13.988Z,37.40
2022-08-26T17:10:16.865Z,37.11
2022-08-26T17:13:28.933Z,36.75
2022-08-26T17:16:38.089Z,36.13
2022-08-26T17:19:46.941Z,35.41
2022-08-26T17:22:51.150Z,34.67
2022-08-26T17:25:54.124Z,33.96
2022-08-26T17:28:58.467Z,33.29
2022-08-26T17:32:01.801Z,32.71
2022-08-26T17:35:05.828Z,32.25
2022-08-26T17:38:11.509Z,31.79
2022-08-26T17:41:15.515Z,31.37
2022-08-26T17:44:18.339Z,30.96
2022-08-26T17:47:21.054Z,30.58
2022-08-26T17:50:23.758Z,30.23
2022-08-26T17:53:26.566Z,29.88
2022-08-26T17:56:29.638Z,29.57
2022-08-26T17:59:32.572Z,29.26
2022-08-26T18:02:37.442Z,28.99
2022-08-26T18:05:41.441Z,28.71
2022-08-26T18:08:44.379Z,28.46
2022-08-26T18:11:47.264Z,28.23
2022-08-26T18:14:50.149Z,28.01
2022-08-26T18:17:52.954Z,27.81
2022-08-26T18:21:01.417Z,27.62
2022-08-26T18:24:05.515Z,27.45
2022-08-26T18:27:08.167Z,27.26
2022-08-26T18:30:16.611Z,27.11
2022-08-26T18:33:20.856Z,26.98
2022-08-26T18:36:24.430Z,26.83
2022-08-26T18:39:27.112Z,26.77
2022-08-26T18:42:29.661Z,26.69
2022-08-26T18:45:32.785Z,26.59
2022-08-26T18:48:36.564Z,26.50
2022-08-26T18:51:39.398Z,26.39
2022-08-26T18:54:45.982Z,26.31
2022-08-26T18:57:48.815Z,26.22
2022-08-26T19:00:51.636Z,26.15
2022-08-26T19:03:54.655Z,26.08
2022-08-26T19:06:57.397Z,26.00
2022-08-26T19:10:00.143Z,25.94
2022-08-26T19:13:04.648Z,25.87
2022-08-26T19:16:14.942Z,25.80
2022-08-26T19:19:18.312Z,25.74
2022-08-26T19:22:22.318Z,25.69
2022-08-26T19:25:24.957Z,25.62
2022-08-26T19:28:27.421Z,25.56
2022-08-26T19:31:30.786Z,25.46
2022-08-26T19:34:33.549Z,25.42
2022-08-26T19:37:36.250Z,25.35
2022-08-26T19:40:39.479Z,25.28
2022-08-26T19:43:42.561Z,25.21
2022-08-26T19:46:45.375Z,25.15
2022-08-26T19:49:52.436Z,25.07
2022-08-26T19:52:55.143Z,25.01
2022-08-26T19:55:57.991Z,24.92
2022-08-26T19:59:01.165Z,24.85
2022-08-26T20:02:07.318Z,24.78
2022-08-26T20:05:14.169Z,24.71
2022-08-26T20:08:22.050Z,24.63
2022-08-26T20:11:25.328Z,24.56
2022-08-26T20:14:28.908Z,24.52
2022-08-26T20:17:31.682Z,24.42
2022-08-26T20:20:53.850Z,24.36
2022-08-26T20:23:58.605Z,24.27
2022-08-26T20:27:07.299Z,24.20
2022-08-26T20:30:11.733Z,24.15
2022-08-26T20:33:14.563Z,24.09
2022-08-26T20:36:17.396Z,24.02
2022-08-26T20:39:20.670Z,23.95
2022-08-26T20:42:23.431Z,23.89
2022-08-26T20:45:26.263Z,23.85
2022-08-26T20:48:29.774Z,23.80
2022-08-26T20:51:32.666Z,23.76
2022-08-26T20:54:35.343Z,23.68
2022-08-26T20:57:38.694Z,23.64
2022-08-26T21:00:41.570Z,23.61
2022-08-26T21:03:44.306Z,23.54
2022-08-26T21:06:52.160Z,23.51
2022-08-26T21:09:55.844Z,23.46
2022-08-26T21:12:58.588Z,23.43
2022-08-26T21:16:01.424Z,23.40
2022-08-26T21:19:04.676Z,23.36
2022-08-26T21:22:07.451Z,23.34
2022-08-26T21:25:10.344Z,23.33
2022-08-26T21:28:13.113Z,23.26
2022-08-26T21:31:17.133Z,23.21
2022-08-26T21:34:20.067Z,23.19
2022-08-26T21:37:23.072Z,23.18
2022-08-26T21:40:26.980Z,23.15
2022-08-26T21:43:35.194Z,23.11
2022-08-26T21:46:39.053Z,23.03
2022-08-26T21:49:43.596Z,22.98
2022-08-26T21:52:47.865Z,22.95
2022-08-26T21:55:50.674Z,22.88
2022-08-26T21:58:54.436Z,22.79
2022-08-26T22:01:57.637Z,22.71
2022-08-26T22:05:00.745Z,22.64
2022-08-26T22:08:04.180Z,22.57
2022-08-26T22:11:06.997Z,22.50
2022-08-26T22:14:09.773Z,22.43
2022-08-26T22:17:12.874Z,22.40
2022-08-26T22:20:16.334Z,22.33
2022-08-26T22:23:20.108Z,22.31
2022-08-26T22:26:25.759Z,22.27
2022-08-26T22:29:28.878Z,22.24
2022-08-26T22:32:31.971Z,22.26
2022-08-26T22:35:37.931Z,22.23
2022-08-26T22:38:40.632Z,22.22
2022-08-26T22:41:44.424Z,22.23
2022-08-26T22:44:47.166Z,22.19
2022-08-26T22:47:49.846Z,22.16
2022-08-26T22:50:57.112Z,22.15
2022-08-26T22:54:02.522Z,22.12
2022-08-26T22:57:05.368Z,22.06
2022-08-26T23:00:11.826Z,22.01
2022-08-26T23:03:15.978Z,21.95
2022-08-26T23:06:19.311Z,21.88
2022-08-26T23:09:22.136Z,21.84
2022-08-26T23:12:27.176Z,21.81
2022-08-26T23:15:30.367Z,21.78
2022-08-26T23:18:33.201Z,21.72
2022-08-26T23:21:36.079Z,21.72
2022-08-26T23:24:41.710Z,21.66
2022-08-26T23:27:44.981Z,21.60
2022-08-26T23:30:47.848Z,21.55
2022-08-26T23:34:09.375Z,21.48
2022-08-26T23:37:13.354Z,21.40
2022-08-26T23:40:18.091Z,21.34
2022-08-26T23:43:21.352Z,21.29
2022-08-26T23:46:24.323Z,21.24
2022-08-26T23:49:28.352Z,21.21
2022-08-26T23:52:51.018Z,21.17
2022-08-26T23:55:54.333Z,21.11
2022-08-26T23:58:57.248Z,21.09
